Terminal Aerodrome Forecast
Issued by NWS Newport/Morehead City, NC

Home | Current Version | Previous Version | Graphics & Text | Print | Product List | Glossary On
Versions: 1 2 3 4 5 6 7 8 9 10 11 12
000
FTUS42 KMHX 211721
TAFEWN
TAF
KEWN 211721Z 2118/2218 VRB03KT P6SM SKC
     FM220900 00000KT 5SM BR FEW250
     FM221200 20004KT P6SM SCT250=

USA.gov is the U.S. government's official web portal to all federal, state and local government web resources and services.